createdAt,value
2023-03-04T00:01:00.285Z,34.22
2023-03-04T00:03:34.637Z,33.00
2023-03-04T00:06:04.025Z,33.63
2023-03-04T00:08:30.661Z,35.25
2023-03-04T00:10:57.140Z,31.00
2023-03-04T00:13:24.148Z,34.80
2023-03-04T00:15:50.734Z,39.22
2023-03-04T00:18:17.191Z,34.67
2023-03-04T00:20:43.717Z,35.42
2023-03-04T00:23:10.468Z,33.80
2023-03-04T00:25:36.944Z,35.58
2023-03-04T00:28:03.435Z,37.08
2023-03-04T00:30:29.904Z,37.10
2023-03-04T00:32:56.269Z,36.47
2023-03-04T00:35:22.617Z,39.72
2023-03-04T00:37:48.960Z,38.97
2023-03-04T00:40:15.446Z,38.92
2023-03-04T00:42:41.815Z,38.22
2023-03-04T00:45:09.381Z,36.30
2023-03-04T00:47:35.750Z,37.00
2023-03-04T00:50:02.284Z,36.78
2023-03-04T00:52:28.715Z,37.90
2023-03-04T00:54:55.070Z,36.63
2023-03-04T00:57:21.391Z,38.58
2023-03-04T00:59:47.752Z,41.97
2023-03-04T01:02:14.569Z,37.75
2023-03-04T01:04:41.833Z,40.75
2023-03-04T01:07:08.248Z,38.67
2023-03-04T01:09:34.645Z,37.97
2023-03-04T01:12:01.033Z,41.80
2023-03-04T01:14:27.379Z,42.45
2023-03-04T01:16:54.585Z,40.78
2023-03-04T01:19:21.394Z,38.20
2023-03-04T01:21:47.734Z,40.63
2023-03-04T01:24:14.131Z,35.92
2023-03-04T01:26:40.757Z,40.17
2023-03-04T01:29:07.127Z,37.78
2023-03-04T01:31:33.556Z,38.10
2023-03-04T01:34:00.099Z,38.88
2023-03-04T01:36:26.556Z,39.03
2023-03-04T01:38:52.869Z,38.72
2023-03-04T01:41:24.135Z,40.72
2023-03-04T01:43:50.825Z,39.58
2023-03-04T01:46:17.702Z,39.15
2023-03-04T01:48:44.860Z,40.97
2023-03-04T01:51:15.642Z,40.60
2023-03-04T01:53:42.932Z,38.72
2023-03-04T01:56:17.796Z,45.67
2023-03-04T01:58:44.260Z,38.53
2023-03-04T02:01:12.320Z,39.70
2023-03-04T02:03:39.116Z,41.75
2023-03-04T02:06:05.823Z,41.80
2023-03-04T02:08:32.380Z,39.45
2023-03-04T02:10:58.840Z,40.92
2023-03-04T02:13:25.340Z,40.45
2023-03-04T02:15:51.700Z,39.40
2023-03-04T02:18:21.039Z,44.50
2023-03-04T02:21:15.246Z,43.67
2023-03-04T02:24:02.325Z,42.45
2023-03-04T02:26:31.254Z,42.60
2023-03-04T02:28:59.888Z,41.05
2023-03-04T02:31:40.112Z,41.25
2023-03-04T02:34:16.027Z,42.47
2023-03-04T02:36:44.850Z,42.05
2023-03-04T02:39:20.104Z,39.72
2023-03-04T02:41:51.567Z,38.63
2023-03-04T02:44:19.505Z,40.97
2023-03-04T02:46:46.531Z,37.47
2023-03-04T02:49:13.649Z,38.45
2023-03-04T02:51:39.976Z,42.17
2023-03-04T02:54:15.908Z,38.33
2023-03-04T02:56:51.183Z,37.67
2023-03-04T02:59:18.860Z,38.72
2023-03-04T03:01:45.571Z,38.38
2023-03-04T03:04:12.984Z,37.67
2023-03-04T03:06:40.002Z,37.58
2023-03-04T03:09:07.723Z,40.67
2023-03-04T03:11:35.087Z,36.45
2023-03-04T03:14:01.651Z,37.00
2023-03-04T03:16:28.060Z,37.20
2023-03-04T03:18:54.759Z,37.08
2023-03-04T03:21:21.278Z,39.38
2023-03-04T03:23:47.801Z,37.65
2023-03-04T03:26:14.310Z,38.42
2023-03-04T03:28:40.675Z,38.85
2023-03-04T03:31:07.256Z,40.40
2023-03-04T03:33:33.728Z,45.05
2023-03-04T03:36:00.388Z,40.22
2023-03-04T03:38:27.105Z,38.42
2023-03-04T03:40:53.527Z,40.83
2023-03-04T03:43:19.931Z,43.22
2023-03-04T03:45:46.341Z,38.85
2023-03-04T03:48:12.758Z,39.80
2023-03-04T03:50:39.214Z,37.13
2023-03-04T03:53:05.953Z,40.13
2023-03-04T03:55:32.260Z,35.83
2023-03-04T03:57:58.622Z,38.85
2023-03-04T04:00:25.096Z,38.53
2023-03-04T04:02:53.865Z,38.67
2023-03-04T04:05:20.859Z,39.13
2023-03-04T04:07:47.270Z,34.78
2023-03-04T04:10:16.724Z,35.80
2023-03-04T04:12:43.174Z,41.25
2023-03-04T04:15:12.082Z,39.13
2023-03-04T04:17:38.805Z,34.67
2023-03-04T04:20:07.888Z,34.15
2023-03-04T04:22:34.445Z,33.25
2023-03-04T04:25:15.311Z,34.92
2023-03-04T04:27:47.905Z,33.08
2023-03-04T04:30:18.824Z,32.50
2023-03-04T04:32:45.535Z,31.75
2023-03-04T04:35:16.761Z,34.80
2023-03-04T04:37:43.440Z,33.97
2023-03-04T04:40:27.867Z,32.65
2023-03-04T04:42:55.044Z,30.00
2023-03-04T04:45:21.713Z,32.10
2023-03-04T04:47:49.812Z,31.55
2023-03-04T04:50:17.070Z,30.73
2023-03-04T04:52:43.764Z,31.60
2023-03-04T04:55:14.746Z,36.33
2023-03-04T04:57:41.964Z,42.92
2023-03-04T05:00:10.026Z,41.65
2023-03-04T05:02:42.184Z,49.90
2023-03-04T05:05:09.064Z,68.85
2023-03-04T05:07:41.378Z,42.03
2023-03-04T05:10:11.202Z,45.13
2023-03-04T05:12:38.063Z,41.22
2023-03-04T05:15:04.967Z,43.90
2023-03-04T05:17:31.503Z,61.00
2023-03-04T05:19:58.075Z,45.45
2023-03-04T05:22:24.722Z,34.33
2023-03-04T05:24:53.627Z,47.45
2023-03-04T05:27:22.706Z,42.08
2023-03-04T05:29:49.425Z,41.55
2023-03-04T05:32:21.671Z,43.28
2023-03-04T05:34:48.538Z,41.05
2023-03-04T05:37:17.622Z,34.63
2023-03-04T05:39:47.745Z,39.60
2023-03-04T05:42:14.328Z,40.63
2023-03-04T05:44:42.379Z,33.97
2023-03-04T05:47:09.079Z,43.55
2023-03-04T05:49:35.606Z,37.92
2023-03-04T05:52:04.591Z,38.63
2023-03-04T05:54:35.014Z,41.50
2023-03-04T05:57:04.033Z,34.15
2023-03-04T05:59:31.822Z,35.80
2023-03-04T06:01:59.864Z,80.47
2023-03-04T06:04:26.706Z,41.95
2023-03-04T06:06:53.299Z,58.83
2023-03-04T06:09:21.150Z,44.45
2023-03-04T06:11:47.657Z,61.95
2023-03-04T06:14:14.279Z,33.95
2023-03-04T06:16:45.877Z,31.77
2023-03-04T06:19:13.753Z,38.53
2023-03-04T06:21:43.624Z,37.30
2023-03-04T06:24:14.151Z,37.50
2023-03-04T06:26:40.908Z,43.20
2023-03-04T06:29:08.913Z,38.50
2023-03-04T06:31:45.826Z,36.97
2023-03-04T06:34:12.474Z,113.47
2023-03-04T06:39:08.856Z,140.15
2023-03-04T06:41:35.449Z,165.15
2023-03-04T06:44:02.275Z,68.03
2023-03-04T06:46:30.568Z,34.97
2023-03-04T06:48:59.167Z,29.80
2023-03-04T06:51:27.056Z,46.47
2023-03-04T06:53:55.105Z,71.70
2023-03-04T06:56:22.136Z,49.10
2023-03-04T06:58:53.689Z,93.25
2023-03-04T07:01:38.326Z,95.30
2023-03-04T07:04:14.086Z,75.03
2023-03-04T07:06:44.921Z,123.63
2023-03-04T07:09:11.727Z,108.43
2023-03-04T07:11:38.312Z,56.72
2023-03-04T07:14:06.491Z,45.25
2023-03-04T07:16:36.579Z,56.85
2023-03-04T07:19:03.390Z,75.20
2023-03-04T07:21:32.351Z,56.65
2023-03-04T07:24:00.067Z,44.53
2023-03-04T07:26:32.888Z,37.30
2023-03-04T07:29:01.927Z,63.90
2023-03-04T07:31:33.159Z,38.25
2023-03-04T07:34:08.666Z,39.50
2023-03-04T07:36:39.237Z,36.55
2023-03-04T07:39:23.428Z,39.80
2023-03-04T07:41:50.296Z,146.20
2023-03-04T07:44:16.825Z,74.60
2023-03-04T07:46:45.521Z,38.88
2023-03-04T07:49:13.832Z,120.45
2023-03-04T07:51:40.750Z,43.00
2023-03-04T07:54:08.184Z,51.58
2023-03-04T07:56:34.732Z,90.13
2023-03-04T07:59:01.950Z,48.40
2023-03-04T08:01:34.137Z,40.53
2023-03-04T08:04:01.657Z,36.70
2023-03-04T08:06:29.074Z,36.03
2023-03-04T08:09:05.988Z,35.85
2023-03-04T08:11:41.101Z,34.72
2023-03-04T08:14:11.219Z,41.97
2023-03-04T08:16:42.372Z,45.45
2023-03-04T08:19:09.077Z,37.13
2023-03-04T08:21:38.334Z,37.10
2023-03-04T08:24:09.221Z,37.03
2023-03-04T08:26:41.859Z,33.60
2023-03-04T08:29:15.181Z,43.75
2023-03-04T08:31:46.296Z,167.70
2023-03-04T08:34:14.686Z,52.45
2023-03-04T08:36:44.371Z,36.30
2023-03-04T08:39:16.636Z,35.17
2023-03-04T08:41:43.414Z,30.85
2023-03-04T08:44:10.835Z,43.15
2023-03-04T08:46:40.380Z,35.90
2023-03-04T08:49:07.969Z,34.28
2023-03-04T08:51:35.698Z,39.10
2023-03-04T08:54:04.398Z,42.15
2023-03-04T08:56:30.939Z,35.78
2023-03-04T08:58:58.554Z,35.70
2023-03-04T09:01:25.356Z,33.28
2023-03-04T09:03:51.969Z,34.78
2023-03-04T09:06:20.640Z,36.42
2023-03-04T09:08:49.825Z,35.67
2023-03-04T09:11:20.613Z,28.85
2023-03-04T09:13:49.078Z,32.17
2023-03-04T09:16:16.550Z,37.47
2023-03-04T09:18:43.670Z,34.58
2023-03-04T09:21:10.604Z,36.20
2023-03-04T09:23:37.752Z,36.75
2023-03-04T09:26:32.128Z,71.57
2023-03-04T09:29:00.787Z,38.28
2023-03-04T09:31:29.644Z,34.65
2023-03-04T09:33:58.310Z,35.33
2023-03-04T09:36:24.958Z,35.00
2023-03-04T09:38:55.357Z,37.78
2023-03-04T09:41:26.401Z,37.28
2023-03-04T09:43:55.699Z,32.92
2023-03-04T09:46:38.814Z,36.28
2023-03-04T09:49:07.402Z,37.38
2023-03-04T09:52:07.554Z,33.70
2023-03-04T09:55:05.163Z,36.45
2023-03-04T09:57:53.253Z,35.67
2023-03-04T10:00:26.137Z,32.63
2023-03-04T10:03:10.634Z,30.88
2023-03-04T10:05:44.278Z,39.70
2023-03-04T10:08:45.701Z,29.52
2023-03-04T10:11:27.275Z,34.30
2023-03-04T10:14:01.496Z,33.17
2023-03-04T10:16:35.455Z,29.83
2023-03-04T10:19:30.548Z,31.83
2023-03-04T10:21:57.071Z,32.63
2023-03-04T10:24:28.672Z,27.85
2023-03-04T10:27:02.473Z,28.20
2023-03-04T10:29:31.869Z,33.47
2023-03-04T10:34:24.800Z,29.65
2023-03-04T10:36:57.085Z,25.98
2023-03-04T10:39:49.917Z,22.42
2023-03-04T10:42:20.958Z,34.38
2023-03-04T10:45:05.279Z,25.98
2023-03-04T10:47:33.950Z,28.77
2023-03-04T10:50:08.180Z,32.25
2023-03-04T10:52:34.791Z,32.38
2023-03-04T10:55:45.336Z,33.28
2023-03-04T10:58:19.322Z,32.00
2023-03-04T11:01:00.223Z,35.40
2023-03-04T11:03:33.661Z,35.53
2023-03-04T11:06:22.285Z,28.45
2023-03-04T11:08:56.786Z,20.40
2023-03-04T11:11:27.595Z,26.25
2023-03-04T11:14:01.877Z,29.67
2023-03-04T11:16:36.305Z,29.52
2023-03-04T11:19:10.939Z,28.35
2023-03-04T11:21:40.814Z,26.77
2023-03-04T11:24:29.216Z,28.48
2023-03-04T11:27:14.539Z,28.20
2023-03-04T11:29:58.512Z,26.00
2023-03-04T11:32:30.816Z,24.80
2023-03-04T11:35:34.416Z,25.70
2023-03-04T11:38:09.999Z,25.95
2023-03-04T11:40:43.475Z,28.85
2023-03-04T11:43:16.592Z,21.42
2023-03-04T11:46:14.922Z,22.98
2023-03-04T11:48:52.646Z,22.90
2023-03-04T11:51:40.773Z,23.15
2023-03-04T11:54:16.403Z,24.42
2023-03-04T11:56:52.313Z,24.08
2023-03-04T11:59:40.652Z,21.73
2023-03-04T12:02:19.655Z,18.98
2023-03-04T12:05:26.046Z,18.80
2023-03-04T12:08:31.160Z,17.63
2023-03-04T12:11:12.238Z,17.30
2023-03-04T12:13:53.689Z,16.45
2023-03-04T12:16:33.133Z,16.48
2023-03-04T12:19:19.398Z,19.92
2023-03-04T12:22:00.498Z,17.83
2023-03-04T12:24:40.609Z,17.70
2023-03-04T12:27:37.917Z,17.52
2023-03-04T12:30:38.395Z,19.75
2023-03-04T12:33:23.013Z,17.88
2023-03-04T12:36:06.491Z,17.75
2023-03-04T12:38:44.607Z,17.42
2023-03-04T12:41:54.755Z,15.05
2023-03-04T12:44:22.652Z,16.02
2023-03-04T12:47:08.588Z,17.50
2023-03-04T12:49:56.798Z,17.58
2023-03-04T12:52:55.079Z,16.77
2023-03-04T12:55:40.046Z,17.17
2023-03-04T12:58:15.571Z,17.15
2023-03-04T13:01:07.669Z,18.30
2023-03-04T13:03:40.775Z,17.00
2023-03-04T13:06:12.208Z,16.95
2023-03-04T13:08:57.366Z,16.10
2023-03-04T13:11:27.304Z,16.52
2023-03-04T13:14:08.426Z,17.52
2023-03-04T13:16:46.084Z,16.88
2023-03-04T13:19:58.016Z,16.25
2023-03-04T13:22:39.687Z,16.27
2023-03-04T13:25:32.852Z,16.48
2023-03-04T13:27:59.267Z,17.30
2023-03-04T13:30:31.840Z,16.80
2023-03-04T13:33:18.322Z,20.33
2023-03-04T13:35:50.809Z,17.17
2023-03-04T13:38:33.303Z,17.33
2023-03-04T13:41:06.348Z,17.55
2023-03-04T13:43:51.977Z,17.05
2023-03-04T13:46:18.642Z,15.88
2023-03-04T13:48:51.107Z,16.40
2023-03-04T13:51:41.543Z,15.57
2023-03-04T13:54:21.603Z,14.85
2023-03-04T13:57:08.921Z,11.82
2023-03-04T13:59:49.044Z,16.27
2023-03-04T14:02:22.569Z,14.82
2023-03-04T14:04:54.791Z,13.25
2023-03-04T14:07:33.138Z,15.05
2023-03-04T14:10:24.953Z,15.18
2023-03-04T14:12:57.616Z,14.52
2023-03-04T14:15:29.348Z,15.48
2023-03-04T14:17:58.345Z,13.50
2023-03-04T14:20:35.363Z,12.95
2023-03-04T14:23:22.496Z,14.25
2023-03-04T14:25:49.288Z,13.18
2023-03-04T14:28:19.356Z,19.48
2023-03-04T14:30:56.486Z,13.57
2023-03-04T14:33:29.097Z,14.95
2023-03-04T14:35:59.046Z,15.75
2023-03-04T14:38:42.771Z,12.95
2023-03-04T14:41:33.551Z,14.27
2023-03-04T14:44:02.740Z,12.35
2023-03-04T14:46:36.513Z,12.80
2023-03-04T14:49:03.767Z,12.23
2023-03-04T14:51:45.877Z,11.82
2023-03-04T14:54:41.289Z,11.77
2023-03-04T14:57:34.257Z,10.50
2023-03-04T15:00:22.647Z,12.88
2023-03-04T15:03:01.737Z,12.57
2023-03-04T15:05:31.575Z,10.80
2023-03-04T15:08:02.114Z,11.15
2023-03-04T15:10:35.144Z,10.65
2023-03-04T15:13:04.042Z,12.10
2023-03-04T15:15:40.417Z,12.38
2023-03-04T15:18:30.301Z,11.48
2023-03-04T15:21:04.231Z,12.07
2023-03-04T15:23:34.079Z,10.45
2023-03-04T15:26:05.895Z,9.63
2023-03-04T15:28:37.365Z,10.23
2023-03-04T15:31:14.825Z,9.30
2023-03-04T15:33:41.578Z,8.75
2023-03-04T15:36:14.635Z,9.25
2023-03-04T15:38:43.767Z,9.48
2023-03-04T15:41:13.117Z,9.80
2023-03-04T15:43:39.756Z,8.30
2023-03-04T15:46:06.479Z,9.23
2023-03-04T15:48:38.092Z,9.30
2023-03-04T15:53:40.796Z,8.50
2023-03-04T15:56:21.253Z,7.90
2023-03-04T15:58:55.033Z,9.50
2023-03-04T16:01:22.083Z,8.93
2023-03-04T16:03:48.847Z,8.75
2023-03-04T16:06:18.762Z,10.40
2023-03-04T16:08:47.339Z,8.52
2023-03-04T16:11:21.178Z,8.93
2023-03-04T16:13:48.189Z,8.75
2023-03-04T16:16:16.275Z,10.45
2023-03-04T16:18:43.820Z,8.52
2023-03-04T16:21:17.147Z,8.65
2023-03-04T16:23:49.635Z,8.88
2023-03-04T16:26:18.532Z,8.85
2023-03-04T16:28:47.452Z,9.05
2023-03-04T16:31:15.129Z,10.50
2023-03-04T16:33:42.166Z,8.95
2023-03-04T16:36:25.217Z,9.10
2023-03-04T16:38:55.277Z,9.60
2023-03-04T16:41:27.206Z,8.43
2023-03-04T16:43:56.006Z,9.95
2023-03-04T16:46:24.591Z,9.13
2023-03-04T16:48:51.008Z,8.50
2023-03-04T16:51:20.652Z,7.78
2023-03-04T16:53:56.233Z,8.55
2023-03-04T16:56:23.382Z,7.65
2023-03-04T16:58:50.735Z,8.57
2023-03-04T17:01:27.417Z,6.78
2023-03-04T17:03:57.630Z,8.18
2023-03-04T17:06:29.347Z,7.53
2023-03-04T17:08:55.820Z,7.50
2023-03-04T17:11:23.334Z,9.90
2023-03-04T17:13:50.423Z,11.02
2023-03-04T17:16:17.313Z,10.55
2023-03-04T17:18:45.752Z,9.52
2023-03-04T17:21:14.608Z,11.40
2023-03-04T17:23:44.070Z,11.75
2023-03-04T17:26:10.511Z,12.23
2023-03-04T17:28:38.359Z,13.80
2023-03-04T17:31:13.309Z,14.60
2023-03-04T17:33:39.992Z,13.65
2023-03-04T17:36:11.977Z,15.00
2023-03-04T17:38:38.748Z,13.50
2023-03-04T17:41:11.260Z,16.15
2023-03-04T17:43:37.580Z,15.95
2023-03-04T17:46:10.385Z,16.02
2023-03-04T17:48:36.879Z,17.55
2023-03-04T17:51:03.448Z,14.82
2023-03-04T17:53:30.509Z,16.00
2023-03-04T17:56:01.945Z,15.60
2023-03-04T17:58:30.745Z,15.40
2023-03-04T18:01:02.876Z,16.38
2023-03-04T18:03:29.431Z,14.82
2023-03-04T18:05:55.746Z,14.77
2023-03-04T18:08:24.078Z,15.35
2023-03-04T18:10:50.643Z,16.15
2023-03-04T18:13:17.034Z,17.83
2023-03-04T18:15:43.429Z,18.55
2023-03-04T18:18:09.765Z,17.80
2023-03-04T18:20:36.069Z,19.38
2023-03-04T18:23:02.528Z,18.58
2023-03-04T18:25:28.976Z,18.13
2023-03-04T18:27:55.604Z,19.27
2023-03-04T18:30:27.055Z,18.48
2023-03-04T18:32:56.008Z,19.38
2023-03-04T18:35:23.208Z,20.77
2023-03-04T18:37:50.027Z,18.50
2023-03-04T18:40:16.776Z,20.67
2023-03-04T18:42:46.412Z,18.80
2023-03-04T18:45:14.244Z,21.25
2023-03-04T18:47:42.285Z,19.92
2023-03-04T18:50:10.855Z,20.00
2023-03-04T18:52:37.768Z,20.40
2023-03-04T18:55:04.869Z,18.80
2023-03-04T18:57:31.654Z,20.33
2023-03-04T19:00:01.144Z,21.33
2023-03-04T19:05:01.649Z,20.08
2023-03-04T19:07:29.616Z,21.05
2023-03-04T19:09:56.103Z,21.35
2023-03-04T19:12:22.637Z,20.05
2023-03-04T19:14:49.032Z,22.95
2023-03-04T19:17:15.607Z,19.98
2023-03-04T19:19:42.735Z,20.42
2023-03-04T19:22:09.515Z,21.13
2023-03-04T19:24:35.946Z,18.13
2023-03-04T19:27:02.798Z,21.65
2023-03-04T19:29:29.794Z,18.67
2023-03-04T19:31:56.334Z,18.83
2023-03-04T19:34:22.784Z,20.48
2023-03-04T19:36:49.217Z,21.05
2023-03-04T19:39:18.250Z,19.90
2023-03-04T19:41:45.134Z,19.70
2023-03-04T19:44:11.679Z,20.48
2023-03-04T19:46:41.301Z,21.20
2023-03-04T19:49:09.863Z,21.05
2023-03-04T19:51:40.159Z,21.88
2023-03-04T19:54:06.628Z,21.25
2023-03-04T19:56:33.080Z,22.70
2023-03-04T19:58:59.518Z,21.13
2023-03-04T20:01:29.276Z,19.50
2023-03-04T20:03:57.713Z,22.05
2023-03-04T20:06:24.530Z,21.15
2023-03-04T20:08:51.201Z,20.63
2023-03-04T20:11:17.846Z,20.48
2023-03-04T20:13:44.445Z,19.63
2023-03-04T20:16:11.845Z,19.42
2023-03-04T20:18:39.552Z,21.40
2023-03-04T20:21:06.518Z,21.27
2023-03-04T20:23:33.914Z,20.45
2023-03-04T20:26:00.684Z,21.17
2023-03-04T20:28:27.293Z,21.52
2023-03-04T20:30:54.146Z,21.73
2023-03-04T20:33:24.593Z,21.42
2023-03-04T20:35:51.173Z,21.98
2023-03-04T20:38:17.566Z,19.52
2023-03-04T20:40:45.472Z,15.88
2023-03-04T20:43:12.154Z,19.17
2023-03-04T20:45:38.594Z,19.63
2023-03-04T20:48:06.763Z,15.65
2023-03-04T20:50:33.193Z,21.20
2023-03-04T20:52:59.540Z,22.60
2023-03-04T20:55:28.611Z,22.17
2023-03-04T20:57:55.051Z,21.27
2023-03-04T21:00:21.723Z,20.55
2023-03-04T21:02:48.197Z,21.70
2023-03-04T21:05:14.708Z,20.52
2023-03-04T21:07:41.238Z,20.67
2023-03-04T21:10:08.784Z,22.23
2023-03-04T21:12:35.284Z,18.80
2023-03-04T21:15:01.737Z,20.48
2023-03-04T21:17:28.395Z,19.55
2023-03-04T21:19:54.803Z,18.38
2023-03-04T21:22:21.679Z,19.85
2023-03-04T21:24:48.464Z,17.88
2023-03-04T21:27:16.930Z,15.70
2023-03-04T21:29:43.540Z,20.92
2023-03-04T21:32:24.264Z,18.15
2023-03-04T21:34:54.743Z,18.63
2023-03-04T21:37:22.710Z,16.60
2023-03-04T21:39:49.322Z,17.65
2023-03-04T21:42:15.904Z,19.58
2023-03-04T21:44:50.510Z,18.60
2023-03-04T21:47:18.610Z,19.83
2023-03-04T21:49:45.424Z,18.42
2023-03-04T21:52:12.946Z,18.00
2023-03-04T21:54:39.290Z,17.67
2023-03-04T21:57:05.726Z,19.88
2023-03-04T21:59:32.120Z,20.42
2023-03-04T22:01:58.567Z,18.40
2023-03-04T22:04:25.015Z,18.63
2023-03-04T22:06:51.471Z,19.50
2023-03-04T22:09:17.829Z,19.15
2023-03-04T22:11:44.216Z,18.27
2023-03-04T22:14:13.298Z,16.15
2023-03-04T22:16:54.184Z,19.02
2023-03-04T22:19:22.669Z,17.38
2023-03-04T22:21:49.886Z,17.98
2023-03-04T22:24:16.248Z,19.33
2023-03-04T22:26:42.648Z,19.50
2023-03-04T22:29:09.305Z,18.60
2023-03-04T22:31:37.008Z,18.80
2023-03-04T22:34:06.288Z,18.33
2023-03-04T22:36:36.798Z,18.98
2023-03-04T22:39:05.549Z,19.38
2023-03-04T22:41:40.884Z,18.55
2023-03-04T22:44:08.527Z,18.85
2023-03-04T22:46:37.906Z,19.02
2023-03-04T22:51:32.381Z,20.02
2023-03-04T22:53:58.884Z,19.48
2023-03-04T22:56:25.485Z,16.60
2023-03-04T22:58:55.090Z,19.30
2023-03-04T23:01:21.550Z,19.48
2023-03-04T23:03:49.249Z,19.75
2023-03-04T23:06:16.901Z,20.92
2023-03-04T23:08:45.258Z,18.85
2023-03-04T23:11:21.079Z,17.42
2023-03-04T23:13:49.083Z,19.30
2023-03-04T23:16:15.986Z,19.40
2023-03-04T23:18:43.719Z,15.77
2023-03-04T23:21:17.936Z,18.42
2023-03-04T23:23:44.803Z,18.05
2023-03-04T23:26:23.909Z,19.85
2023-03-04T23:28:50.935Z,17.40
2023-03-04T23:31:18.759Z,17.15
2023-03-04T23:33:47.526Z,17.52
2023-03-04T23:36:16.408Z,18.75
2023-03-04T23:38:44.404Z,18.77
2023-03-04T23:41:15.888Z,19.17
2023-03-04T23:43:42.418Z,17.67
2023-03-04T23:46:11.927Z,15.75
2023-03-04T23:48:39.933Z,16.40
2023-03-04T23:51:06.831Z,15.98
2023-03-04T23:53:34.360Z,16.63
2023-03-04T23:56:00.759Z,18.92
2023-03-04T23:58:27.222Z,17.27
